createdAt,value
2024-04-25T00:02:15.820Z,2.19
2024-04-25T00:04:42.962Z,2.43
2024-04-25T00:07:09.961Z,1.95
2024-04-25T00:09:37.046Z,2.17
2024-04-25T00:12:04.189Z,2.20
2024-04-25T00:14:31.261Z,2.09
2024-04-25T00:16:58.326Z,2.07
2024-04-25T00:19:25.564Z,2.59
2024-04-25T00:21:54.047Z,2.79
2024-04-25T00:24:24.414Z,2.77
2024-04-25T00:26:51.424Z,2.85
2024-04-25T00:29:18.464Z,2.59
2024-04-25T00:31:45.521Z,2.77
2024-04-25T00:34:12.550Z,2.93
2024-04-25T00:36:45.116Z,3.28
2024-04-25T00:39:14.708Z,3.25
2024-04-25T00:41:41.783Z,3.53
2024-04-25T00:44:08.861Z,3.32
2024-04-25T00:46:40.809Z,2.93
2024-04-25T00:49:12.452Z,2.97
2024-04-25T00:51:47.658Z,3.23
2024-04-25T00:54:17.980Z,3.48
2024-04-25T00:56:47.469Z,3.13
2024-04-25T00:59:17.056Z,3.22
2024-04-25T01:01:45.464Z,2.92
2024-04-25T01:04:14.573Z,3.67
2024-04-25T01:06:43.023Z,3.17
2024-04-25T01:09:10.009Z,2.68
2024-04-25T01:11:37.204Z,2.57
2024-04-25T01:14:04.426Z,3.10
2024-04-25T01:16:31.475Z,2.99
2024-04-25T01:19:00.759Z,2.82
2024-04-25T01:21:28.241Z,3.69
2024-04-25T01:24:02.373Z,2.79
2024-04-25T01:26:32.891Z,3.10
2024-04-25T01:29:04.137Z,2.29
2024-04-25T01:31:32.551Z,2.30
2024-04-25T01:34:00.025Z,2.25
2024-04-25T01:36:27.622Z,1.91
2024-04-25T01:38:54.688Z,2.89
2024-04-25T01:41:21.737Z,2.11
2024-04-25T01:43:48.732Z,1.68
2024-04-25T01:46:15.718Z,1.95
2024-04-25T01:48:47.959Z,1.98
2024-04-25T01:51:16.186Z,2.10
2024-04-25T01:53:43.127Z,2.02
2024-04-25T01:56:10.167Z,1.80
2024-04-25T01:58:40.016Z,2.17
2024-04-25T02:01:07.154Z,1.87
2024-04-25T02:03:34.336Z,2.41
2024-04-25T02:06:01.464Z,2.48
2024-04-25T02:08:31.063Z,2.29
2024-04-25T02:11:06.857Z,2.19
2024-04-25T02:13:33.958Z,2.33
2024-04-25T02:16:00.920Z,2.67
2024-04-25T02:18:28.103Z,2.53
2024-04-25T02:21:13.878Z,2.57
2024-04-25T02:23:59.257Z,2.58
2024-04-25T02:26:26.358Z,2.67
2024-04-25T02:28:56.343Z,2.67
2024-04-25T02:31:29.472Z,3.06
2024-04-25T02:33:59.029Z,3.07
2024-04-25T02:36:28.988Z,2.36
2024-04-25T02:38:56.157Z,3.53
2024-04-25T02:41:25.794Z,2.77
2024-04-25T02:43:52.857Z,3.57
2024-04-25T02:46:19.885Z,2.54
2024-04-25T02:48:48.718Z,2.51
2024-04-25T02:51:15.734Z,2.69
2024-04-25T02:53:42.820Z,2.86
2024-04-25T02:56:09.888Z,3.09
2024-04-25T02:58:36.887Z,2.57
2024-04-25T03:01:04.667Z,2.55
2024-04-25T03:03:32.217Z,2.53
2024-04-25T03:05:59.907Z,2.29
2024-04-25T03:08:26.978Z,2.75
2024-04-25T03:10:54.030Z,2.88
2024-04-25T03:13:21.079Z,2.70
2024-04-25T03:15:48.061Z,2.69
2024-04-25T03:18:15.988Z,2.26
2024-04-25T03:20:43.155Z,2.55
2024-04-25T03:23:15.821Z,2.36
2024-04-25T03:25:43.565Z,2.28
2024-04-25T03:28:13.870Z,2.11
2024-04-25T03:30:40.825Z,2.49
2024-04-25T03:33:08.003Z,2.33
2024-04-25T03:35:36.563Z,2.23
2024-04-25T03:38:05.688Z,2.18
2024-04-25T03:40:36.842Z,2.11
2024-04-25T03:43:07.343Z,1.96
2024-04-25T03:45:35.181Z,2.37
2024-04-25T03:48:04.725Z,2.31
2024-04-25T03:50:37.938Z,2.37
2024-04-25T03:53:05.154Z,2.11
2024-04-25T03:55:32.226Z,2.51
2024-04-25T03:57:59.222Z,2.71
2024-04-25T04:00:28.859Z,2.11
2024-04-25T04:02:55.832Z,2.75
2024-04-25T04:05:22.878Z,3.37
2024-04-25T04:07:52.986Z,2.69
2024-04-25T04:10:19.955Z,3.39
2024-04-25T04:12:50.175Z,2.97
2024-04-25T04:15:20.685Z,3.19
2024-04-25T04:17:49.584Z,2.95
2024-04-25T04:20:16.846Z,3.09
2024-04-25T04:22:43.884Z,3.41
2024-04-25T04:25:11.146Z,3.42
2024-04-25T04:27:38.322Z,2.90
2024-04-25T04:30:08.974Z,2.89
2024-04-25T04:32:36.376Z,2.52
2024-04-25T04:35:03.774Z,3.23
2024-04-25T04:37:30.808Z,2.95
2024-04-25T04:39:57.795Z,3.10
2024-04-25T04:42:24.866Z,2.73
2024-04-25T04:44:54.761Z,3.20
2024-04-25T04:47:21.795Z,3.21
2024-04-25T04:49:48.771Z,3.08
2024-04-25T04:52:21.798Z,3.40
2024-04-25T04:54:48.741Z,3.89
2024-04-25T04:57:15.804Z,3.41
2024-04-25T04:59:42.788Z,3.67
2024-04-25T05:02:09.880Z,3.53
2024-04-25T05:04:36.838Z,2.97
2024-04-25T05:07:04.859Z,3.61
2024-04-25T05:09:38.029Z,3.85
2024-04-25T05:12:05.397Z,3.34
2024-04-25T05:14:32.553Z,4.29
2024-04-25T05:16:59.576Z,3.63
2024-04-25T05:19:26.539Z,3.91
2024-04-25T05:21:57.690Z,3.42
2024-04-25T05:24:24.642Z,3.59
2024-04-25T05:26:51.608Z,3.09
2024-04-25T05:29:21.105Z,5.55
2024-04-25T05:31:48.185Z,5.09
2024-04-25T05:34:15.170Z,4.49
2024-04-25T05:36:43.917Z,4.15
2024-04-25T05:39:13.950Z,4.24
2024-04-25T05:41:40.969Z,3.87
2024-04-25T05:44:10.288Z,3.99
2024-04-25T05:46:37.886Z,3.97
2024-04-25T05:49:06.200Z,4.11
2024-04-25T05:51:33.277Z,4.32
2024-04-25T05:54:00.248Z,3.56
2024-04-25T05:56:27.278Z,3.79
2024-04-25T05:58:58.127Z,3.35
2024-04-25T06:01:25.185Z,3.22
2024-04-25T06:03:52.331Z,2.89
2024-04-25T06:06:19.452Z,3.10
2024-04-25T06:08:46.549Z,3.46
2024-04-25T06:11:14.027Z,3.39
2024-04-25T06:13:42.459Z,3.17
2024-04-25T06:16:09.568Z,2.88
2024-04-25T06:18:46.701Z,3.33
2024-04-25T06:21:13.686Z,3.02
2024-04-25T06:23:44.334Z,4.02
2024-04-25T06:26:11.526Z,3.70
2024-04-25T06:28:39.903Z,3.59
2024-04-25T06:31:06.942Z,3.48
2024-04-25T06:33:34.545Z,3.71
2024-04-25T06:38:48.315Z,4.24
2024-04-25T06:41:15.360Z,3.45
2024-04-25T06:43:42.381Z,4.93
2024-04-25T06:46:09.358Z,4.03
2024-04-25T06:48:37.910Z,4.24
2024-04-25T06:51:05.599Z,3.73
2024-04-25T06:56:13.718Z,4.05
2024-04-25T06:58:40.675Z,4.45
2024-04-25T07:01:08.111Z,5.65
2024-04-25T07:03:35.183Z,4.16
2024-04-25T07:06:02.166Z,5.11
2024-04-25T07:08:31.139Z,4.51
2024-04-25T07:11:01.225Z,5.41
2024-04-25T07:13:28.297Z,4.64
2024-04-25T07:15:55.384Z,4.06
2024-04-25T07:18:22.460Z,4.90
2024-04-25T07:20:49.599Z,4.55
2024-04-25T07:23:16.611Z,4.50
2024-04-25T07:25:44.146Z,4.21
2024-04-25T07:28:11.592Z,4.21
2024-04-25T07:30:41.076Z,4.12
2024-04-25T07:33:08.186Z,4.55
2024-04-25T07:35:35.329Z,4.05
2024-04-25T07:38:02.857Z,5.01
2024-04-25T07:40:32.733Z,4.25
2024-04-25T07:43:03.675Z,4.33
2024-04-25T07:45:30.680Z,4.78
2024-04-25T07:48:00.522Z,4.77
2024-04-25T07:50:30.546Z,4.29
2024-04-25T07:52:57.589Z,3.69
2024-04-25T07:55:24.581Z,4.71
2024-04-25T07:57:51.534Z,3.91
2024-04-25T08:00:21.162Z,4.04
2024-04-25T08:02:50.028Z,3.04
2024-04-25T08:05:26.268Z,3.49
2024-04-25T08:07:53.294Z,3.26
2024-04-25T08:10:22.733Z,3.23
2024-04-25T08:12:52.465Z,3.64
2024-04-25T08:15:19.432Z,3.32
2024-04-25T08:17:49.625Z,2.92
2024-04-25T08:22:16.808Z,2.87
2024-04-25T08:24:43.858Z,2.52
2024-04-25T08:27:10.921Z,2.67
2024-04-25T08:29:38.047Z,2.87
2024-04-25T08:32:05.255Z,3.38
2024-04-25T08:34:32.242Z,2.52
2024-04-25T08:36:59.251Z,2.95
2024-04-25T08:39:26.413Z,2.86
2024-04-25T08:41:55.377Z,2.21
2024-04-25T08:44:22.758Z,2.44
2024-04-25T08:46:50.652Z,2.06
2024-04-25T08:49:20.481Z,2.45
2024-04-25T08:51:51.634Z,2.29
2024-04-25T08:54:23.948Z,2.07
2024-04-25T08:56:50.951Z,1.79
2024-04-25T08:59:20.947Z,2.31
2024-04-25T09:01:51.167Z,1.68
2024-04-25T09:04:26.779Z,1.83
2024-04-25T09:06:54.721Z,2.07
2024-04-25T09:09:22.025Z,1.47
2024-04-25T09:11:57.604Z,1.76
2024-04-25T09:14:25.083Z,2.05
2024-04-25T09:16:54.617Z,1.89
2024-04-25T09:19:26.129Z,1.89
2024-04-25T09:21:54.364Z,1.80
2024-04-25T09:24:21.494Z,1.79
2024-04-25T09:26:48.682Z,1.91
2024-04-25T09:29:17.719Z,1.97
2024-04-25T09:31:48.138Z,1.81
2024-04-25T09:34:15.349Z,2.20
2024-04-25T09:36:42.802Z,2.08
2024-04-25T09:39:10.004Z,2.03
2024-04-25T09:41:38.741Z,1.93
2024-04-25T09:44:05.844Z,2.58
2024-04-25T09:46:40.942Z,1.80
2024-04-25T09:49:10.323Z,2.28
2024-04-25T09:54:48.078Z,1.99
2024-04-25T09:57:20.392Z,2.45
2024-04-25T10:00:00.655Z,2.49
2024-04-25T10:02:31.062Z,2.40
2024-04-25T10:04:58.337Z,2.45
2024-04-25T10:07:28.926Z,2.23
2024-04-25T10:09:57.293Z,1.95
2024-04-25T10:12:27.764Z,2.35
2024-04-25T10:15:00.395Z,2.47
2024-04-25T10:17:29.189Z,2.21
2024-04-25T10:20:01.404Z,2.38
2024-04-25T10:22:33.769Z,2.71
2024-04-25T10:25:04.670Z,3.31
2024-04-25T10:27:32.176Z,3.05
2024-04-25T10:30:06.994Z,3.55
2024-04-25T10:32:34.673Z,3.25
2024-04-25T10:35:02.401Z,2.90
2024-04-25T10:37:29.844Z,2.87
2024-04-25T10:40:02.768Z,2.63
2024-04-25T10:42:29.784Z,3.19
2024-04-25T10:44:56.829Z,2.79
2024-04-25T10:47:24.205Z,2.79
2024-04-25T10:49:51.410Z,2.99
2024-04-25T10:52:18.570Z,2.99
2024-04-25T10:54:46.031Z,2.84
2024-04-25T10:57:15.122Z,3.11
2024-04-25T10:59:42.658Z,3.56
2024-04-25T11:02:12.712Z,4.76
2024-04-25T11:04:42.863Z,4.86
2024-04-25T11:07:13.639Z,4.59
2024-04-25T11:09:40.842Z,3.93
2024-04-25T11:12:11.670Z,3.55
2024-04-25T11:14:40.360Z,3.06
2024-04-25T11:17:07.526Z,3.37
2024-04-25T11:19:43.541Z,3.05
2024-04-25T11:24:49.081Z,3.21
2024-04-25T11:27:19.865Z,2.66
2024-04-25T11:29:49.584Z,2.68
2024-04-25T11:32:19.277Z,2.93
2024-04-25T11:34:47.494Z,3.05
2024-04-25T11:37:14.500Z,2.85
2024-04-25T11:39:54.760Z,2.67
2024-04-25T11:42:22.536Z,3.14
2024-04-25T11:44:52.376Z,3.55
2024-04-25T11:47:19.753Z,4.82
2024-04-25T11:49:47.456Z,3.93
2024-04-25T11:52:15.430Z,3.89
2024-04-25T11:54:42.511Z,4.01
2024-04-25T11:57:09.668Z,5.63
2024-04-25T11:59:36.688Z,4.87
2024-04-25T12:02:03.864Z,4.13
2024-04-25T12:04:30.893Z,5.67
2024-04-25T12:07:04.093Z,4.30
2024-04-25T12:09:31.739Z,4.73
2024-04-25T12:11:59.127Z,4.65
2024-04-25T12:14:26.424Z,4.47
2024-04-25T12:16:53.600Z,3.64
2024-04-25T12:19:21.389Z,3.28
2024-04-25T12:21:48.434Z,3.91
2024-04-25T12:24:15.391Z,3.68
2024-04-25T12:26:43.527Z,3.72
2024-04-25T12:29:10.579Z,4.11
2024-04-25T12:31:37.979Z,3.51
2024-04-25T12:34:05.031Z,4.25
2024-04-25T12:36:35.013Z,4.52
2024-04-25T12:39:02.032Z,4.81
2024-04-25T12:41:32.202Z,3.50
2024-04-25T12:43:59.282Z,4.15
2024-04-25T12:46:26.340Z,4.38
2024-04-25T12:48:53.584Z,3.91
2024-04-25T12:51:27.536Z,4.41
2024-04-25T12:53:54.651Z,4.89
2024-04-25T12:56:21.898Z,4.92
2024-04-25T12:58:48.932Z,4.14
2024-04-25T13:01:16.066Z,5.17
2024-04-25T13:03:43.717Z,4.42
2024-04-25T13:06:10.775Z,4.57
2024-04-25T13:08:41.783Z,4.24
2024-04-25T13:11:08.854Z,4.15
2024-04-25T13:13:36.079Z,3.76
2024-04-25T13:16:03.405Z,3.63
2024-04-25T13:18:32.280Z,4.32
2024-04-25T13:21:03.483Z,4.18
2024-04-25T13:23:35.453Z,3.66
2024-04-25T13:26:02.568Z,4.12
2024-04-25T13:28:30.245Z,4.23
2024-04-25T13:30:57.658Z,4.04
2024-04-25T13:33:26.783Z,4.63
2024-04-25T13:35:53.943Z,5.23
2024-04-25T13:38:22.744Z,4.58
2024-04-25T13:40:49.759Z,4.76
2024-04-25T13:43:17.090Z,4.29
2024-04-25T13:45:44.168Z,6.23
2024-04-25T13:48:11.246Z,5.31
2024-04-25T13:50:38.510Z,4.56
2024-04-25T13:53:05.663Z,4.51
2024-04-25T13:55:32.638Z,4.15
2024-04-25T13:58:03.897Z,4.97
2024-04-25T14:00:31.399Z,5.80
2024-04-25T14:02:58.386Z,5.01
2024-04-25T14:05:25.520Z,4.86
2024-04-25T14:07:57.632Z,4.75
2024-04-25T14:10:24.767Z,5.46
2024-04-25T14:12:51.758Z,5.03
2024-04-25T14:15:21.330Z,5.75
2024-04-25T14:17:51.501Z,4.77
2024-04-25T14:20:18.629Z,5.46
2024-04-25T14:22:48.766Z,6.39
2024-04-25T14:25:34.437Z,5.70
2024-04-25T14:28:20.071Z,5.94
2024-04-25T14:30:47.027Z,6.37
2024-04-25T14:33:19.836Z,5.91
2024-04-25T14:35:46.980Z,5.51
2024-04-25T14:38:15.914Z,6.63
2024-04-25T14:40:42.892Z,7.52
2024-04-25T14:43:09.888Z,6.87
2024-04-25T14:45:41.071Z,7.72
2024-04-25T14:48:08.388Z,6.96
2024-04-25T14:50:35.570Z,8.09
2024-04-25T14:53:03.220Z,8.12
2024-04-25T14:55:30.897Z,7.73
2024-04-25T14:57:57.880Z,8.08
2024-04-25T15:00:24.907Z,7.93
2024-04-25T15:02:53.633Z,8.42
2024-04-25T15:05:22.707Z,9.18
2024-04-25T15:07:49.723Z,9.44
2024-04-25T15:10:19.680Z,10.15
2024-04-25T15:12:46.730Z,9.58
2024-04-25T15:15:20.307Z,10.15
2024-04-25T15:17:49.931Z,9.03
2024-04-25T15:20:17.423Z,9.93
2024-04-25T15:22:44.881Z,8.32
2024-04-25T15:25:11.926Z,9.91
2024-04-25T15:27:41.575Z,9.04
2024-04-25T15:30:09.219Z,10.27
2024-04-25T15:32:36.459Z,9.43
2024-04-25T15:35:05.477Z,9.09
2024-04-25T15:37:34.059Z,8.91
2024-04-25T15:40:01.679Z,8.33
2024-04-25T15:42:29.161Z,9.63
2024-04-25T15:45:02.000Z,10.09
2024-04-25T15:47:34.873Z,10.37
2024-04-25T15:50:02.297Z,8.95
2024-04-25T15:52:33.645Z,9.63
2024-04-25T15:55:01.299Z,9.51
2024-04-25T15:57:28.446Z,9.73
2024-04-25T15:59:55.596Z,8.62
2024-04-25T16:02:22.986Z,9.85
2024-04-25T16:04:52.002Z,9.33
2024-04-25T16:07:20.443Z,10.96
2024-04-25T16:09:47.540Z,11.97
2024-04-25T16:12:16.589Z,11.99
2024-04-25T16:14:43.692Z,10.26
2024-04-25T16:17:10.775Z,11.40
2024-04-25T16:19:37.803Z,11.63
2024-04-25T16:22:05.930Z,12.70
2024-04-25T16:24:33.352Z,11.75
2024-04-25T16:27:03.357Z,12.05
2024-04-25T16:29:31.404Z,10.71
2024-04-25T16:31:58.441Z,11.55
2024-04-25T16:34:25.556Z,12.96
2024-04-25T16:36:52.565Z,12.11
2024-04-25T16:39:19.580Z,11.82
2024-04-25T16:41:46.607Z,13.11
2024-04-25T16:44:13.720Z,11.85
2024-04-25T16:46:41.422Z,13.76
2024-04-25T16:49:15.124Z,12.69
2024-04-25T16:51:44.711Z,12.20
2024-04-25T16:54:14.858Z,13.00
2024-04-25T16:56:41.902Z,12.29
2024-04-25T16:59:08.991Z,13.56
2024-04-25T17:01:36.067Z,13.61
2024-04-25T17:04:05.875Z,12.71
2024-04-25T17:06:33.152Z,12.90
2024-04-25T17:09:00.156Z,12.90
2024-04-25T17:11:30.408Z,14.43
2024-04-25T17:14:04.362Z,14.10
2024-04-25T17:16:31.412Z,12.67
2024-04-25T17:19:00.043Z,14.23
2024-04-25T17:21:33.551Z,12.54
2024-04-25T17:24:03.129Z,13.21
2024-04-25T17:26:30.245Z,13.45
2024-04-25T17:28:58.995Z,13.68
2024-04-25T17:31:30.137Z,14.83
2024-04-25T17:33:58.232Z,15.25
2024-04-25T17:36:25.309Z,23.02
2024-04-25T17:38:54.131Z,22.00
2024-04-25T17:41:24.281Z,21.00
2024-04-25T17:43:51.277Z,24.39
2024-04-25T17:46:20.454Z,25.76
2024-04-25T17:48:47.648Z,24.74
2024-04-25T17:51:21.891Z,17.56
2024-04-25T17:53:50.076Z,15.19
2024-04-25T17:56:17.911Z,13.16
2024-04-25T17:58:47.494Z,13.85
2024-04-25T18:01:14.603Z,13.22
2024-04-25T18:03:44.115Z,15.03
2024-04-25T18:06:14.511Z,16.05
2024-04-25T18:08:53.106Z,13.21
2024-04-25T18:11:28.138Z,13.15
2024-04-25T18:13:55.151Z,15.37
2024-04-25T18:16:22.276Z,13.89
2024-04-25T18:18:54.721Z,13.36
2024-04-25T18:21:21.762Z,12.36
2024-04-25T18:23:49.013Z,16.15
2024-04-25T18:26:16.239Z,17.13
2024-04-25T18:28:43.244Z,17.04
2024-04-25T18:31:12.077Z,15.64
2024-04-25T18:33:40.313Z,16.31
2024-04-25T18:36:07.586Z,17.94
2024-04-25T18:38:34.587Z,17.26
2024-04-25T18:41:07.688Z,16.59
2024-04-25T18:43:34.648Z,15.55
2024-04-25T18:46:04.424Z,15.05
2024-04-25T18:48:31.742Z,15.73
2024-04-25T18:51:05.899Z,16.86
2024-04-25T18:53:32.892Z,16.25
2024-04-25T18:55:59.851Z,15.87
2024-04-25T18:58:26.878Z,17.51
2024-04-25T19:00:53.972Z,17.88
2024-04-25T19:03:21.123Z,17.09
2024-04-25T19:05:48.177Z,13.75
2024-04-25T19:08:15.237Z,15.12
2024-04-25T19:10:42.273Z,14.47
2024-04-25T19:13:11.076Z,11.13
2024-04-25T19:15:38.149Z,10.69
2024-04-25T19:18:09.149Z,9.96
2024-04-25T19:20:37.969Z,8.44
2024-04-25T19:23:07.226Z,8.67
2024-04-25T19:25:34.362Z,9.05
2024-04-25T19:28:03.912Z,8.09
2024-04-25T19:30:30.858Z,8.01
2024-04-25T19:32:57.932Z,9.41
2024-04-25T19:35:25.047Z,9.26
2024-04-25T19:37:54.525Z,9.09
2024-04-25T19:40:24.329Z,8.57
2024-04-25T19:42:54.393Z,10.32
2024-04-25T19:45:21.364Z,8.79
2024-04-25T19:47:48.478Z,23.11
2024-04-25T19:50:16.352Z,14.15
2024-04-25T19:52:45.970Z,10.07
2024-04-25T19:55:13.895Z,10.21
2024-04-25T19:57:40.891Z,9.93
2024-04-25T20:00:08.460Z,10.23
2024-04-25T20:02:36.682Z,11.86
2024-04-25T20:05:03.928Z,14.19
2024-04-25T20:07:31.796Z,14.67
2024-04-25T20:09:59.469Z,12.04
2024-04-25T20:12:27.604Z,14.14
2024-04-25T20:14:55.446Z,12.41
2024-04-25T20:17:43.922Z,12.99
2024-04-25T20:20:29.866Z,12.10
2024-04-25T20:23:00.945Z,13.03
2024-04-25T20:25:27.913Z,12.77
2024-04-25T20:27:57.206Z,12.52
2024-04-25T20:30:24.176Z,13.27
2024-04-25T20:32:51.267Z,13.97
2024-04-25T20:35:18.377Z,14.68
2024-04-25T20:37:51.036Z,15.00
2024-04-25T20:40:18.083Z,16.12
2024-04-25T20:42:45.123Z,15.83
2024-04-25T20:45:12.258Z,15.22
2024-04-25T20:47:39.428Z,14.93
2024-04-25T20:50:06.978Z,16.79
2024-04-25T20:52:37.536Z,17.09
2024-04-25T20:55:04.954Z,17.51
2024-04-25T20:57:34.703Z,14.72
2024-04-25T21:00:01.808Z,14.01
2024-04-25T21:02:32.491Z,15.25
2024-04-25T21:05:03.379Z,14.34
2024-04-25T21:07:30.578Z,14.76
2024-04-25T21:09:58.925Z,14.31
2024-04-25T21:12:25.902Z,14.39
2024-04-25T21:14:53.059Z,14.41
2024-04-25T21:17:24.480Z,14.60
2024-04-25T21:19:51.573Z,13.09
2024-04-25T21:22:18.540Z,12.13
2024-04-25T21:24:45.581Z,13.57
2024-04-25T21:27:12.853Z,12.58
2024-04-25T21:29:39.913Z,13.66
2024-04-25T21:32:07.091Z,12.43
2024-04-25T21:34:37.085Z,12.87
2024-04-25T21:37:04.173Z,12.69
2024-04-25T21:39:31.198Z,12.43
2024-04-25T21:41:58.206Z,12.99
2024-04-25T21:44:28.155Z,14.14
2024-04-25T21:46:55.137Z,12.67
2024-04-25T21:49:22.347Z,12.65
2024-04-25T21:51:49.387Z,11.58
2024-04-25T21:54:16.397Z,12.43
2024-04-25T21:56:44.769Z,12.61
2024-04-25T21:59:12.513Z,13.47
2024-04-25T22:01:53.093Z,12.09
2024-04-25T22:04:23.653Z,13.95
2024-04-25T22:06:50.737Z,13.50
2024-04-25T22:09:17.954Z,14.11
2024-04-25T22:11:45.011Z,11.82
2024-04-25T22:14:12.097Z,13.59
2024-04-25T22:16:39.114Z,13.46
2024-04-25T22:19:06.142Z,14.47
2024-04-25T22:21:36.336Z,15.42
2024-04-25T22:24:03.497Z,14.79
2024-04-25T22:26:30.641Z,15.42
2024-04-25T22:28:58.892Z,15.55
2024-04-25T22:31:25.943Z,13.48
2024-04-25T22:33:53.095Z,14.81
2024-04-25T22:36:20.930Z,16.35
2024-04-25T22:38:48.130Z,14.33
2024-04-25T22:41:15.222Z,14.65
2024-04-25T22:43:42.258Z,15.27
2024-04-25T22:46:14.737Z,15.02
2024-04-25T22:48:44.519Z,14.44
2024-04-25T22:51:11.680Z,14.83
2024-04-25T22:53:39.969Z,14.66
2024-04-25T22:56:07.883Z,16.69
2024-04-25T22:58:34.862Z,16.37
2024-04-25T23:01:02.281Z,15.31
2024-04-25T23:03:31.708Z,14.89
2024-04-25T23:05:59.152Z,16.17
2024-04-25T23:08:26.491Z,14.22
2024-04-25T23:10:53.536Z,15.05
2024-04-25T23:13:21.737Z,16.33
2024-04-25T23:15:48.990Z,14.95
2024-04-25T23:18:16.472Z,16.37
2024-04-25T23:20:43.738Z,15.36
2024-04-25T23:23:10.770Z,15.41
2024-04-25T23:25:38.228Z,15.71
2024-04-25T23:28:05.569Z,13.81
2024-04-25T23:30:34.045Z,14.67
2024-04-25T23:33:01.249Z,14.37
2024-04-25T23:35:28.502Z,15.81
2024-04-25T23:37:55.516Z,15.73
2024-04-25T23:40:22.590Z,15.00
2024-04-25T23:42:50.731Z,15.43
2024-04-25T23:45:17.730Z,15.89
2024-04-25T23:47:44.825Z,14.81
2024-04-25T23:50:12.062Z,15.36
2024-04-25T23:52:43.374Z,15.48
2024-04-25T23:55:10.354Z,15.83
2024-04-25T23:57:37.643Z,15.59
